Time;durP1;ratioP1;P1;durP2;ratioP2;P2;SDS_P1;SDS_P2;PMS_P1;PMS_P2;Temp;Humidity;BMP_temperature;BMP_pressure;BME280_temperature;BME280_humidity;BME280_pressure;Samples;Min_cycle;Max_cycle;Signal;HPM_P1;HPM_P2
2023/09/25 00:00:33;;;;;;;17.33;11.30;;;;;;;21.98;47.60;102190.56;4989442;28;20081;-32
2023/09/25 00:03:01;;;;;;;15.80;10.70;;;;;;;21.97;47.02;102188.88;4983699;28;20101;-32
2023/09/25 00:05:29;;;;;;;17.30;11.10;;;;;;;21.96;47.46;102184.47;4993685;28;20695;-32
2023/09/25 00:07:56;;;;;;;17.10;11.38;;;;;;;21.95;47.79;102190.88;4991713;28;20053;-32
2023/09/25 00:10:23;;;;;;;15.88;10.07;;;;;;;21.94;47.44;102200.81;4986874;28;20046;-32
2023/09/25 00:12:50;;;;;;;15.45;9.68;;;;;;;21.93;47.37;102196.41;4992687;28;20046;-32
2023/09/25 00:15:16;;;;;;;16.30;10.10;;;;;;;21.93;47.46;102200.97;4979686;28;20152;-32
2023/09/25 00:17:43;;;;;;;14.48;9.60;;;;;;;21.91;47.62;102195.72;4991643;28;20046;-32
2023/09/25 00:20:11;;;;;;;17.02;10.90;;;;;;;21.92;47.66;102199.28;4991140;28;20140;-32
2023/09/25 00:22:38;;;;;;;15.30;9.73;;;;;;;21.90;47.51;102198.53;4989982;28;20050;-32
2023/09/25 00:25:05;;;;;;;14.32;9.57;;;;;;;21.88;47.54;102193.31;4987549;28;20086;-32
2023/09/25 00:27:31;;;;;;;15.52;9.80;;;;;;;21.88;47.62;102195.16;4985037;28;20042;-32
2023/09/25 00:29:59;;;;;;;12.65;8.73;;;;;;;21.88;47.75;102198.69;4987769;28;20117;-32
2023/09/25 00:32:26;;;;;;;11.98;7.72;;;;;;;21.85;47.77;102196.28;4986917;28;20077;-32
2023/09/25 00:34:53;;;;;;;14.73;7.75;;;;;;;21.85;47.61;102198.16;4984635;28;20058;-32
2023/09/25 00:37:21;;;;;;;14.50;9.23;;;;;;;21.84;47.84;102191.06;4986692;28;20446;-32
2023/09/25 00:39:48;;;;;;;13.73;9.00;;;;;;;21.83;47.75;102190.19;4981338;28;20055;-32
2023/09/25 00:42:15;;;;;;;12.90;8.15;;;;;;;21.82;47.83;102193.03;4987375;28;20046;-32
2023/09/25 00:44:41;;;;;;;11.57;7.28;;;;;;;21.80;47.65;102193.19;4991732;28;20389;-33
2023/09/25 00:47:09;;;;;;;12.27;7.88;;;;;;;21.81;47.75;102196.72;4988699;28;20133;-32
2023/09/25 00:49:36;;;;;;;11.73;7.65;;;;;;;21.80;47.78;102198.59;4990348;28;20311;-32
2023/09/25 00:52:03;;;;;;;11.23;7.55;;;;;;;21.78;47.62;102197.88;4987874;28;20151;-32
2023/09/25 00:54:33;;;;;;;10.68;6.93;;;;;;;21.78;47.54;102197.88;4983817;28;20512;-32
2023/09/25 00:57:08;;;;;;;10.88;7.03;;;;;;;21.79;47.62;102196.00;4984777;28;20296;-32
2023/09/25 00:59:38;;;;;;;10.32;6.25;;;;;;;21.77;47.80;102192.63;4990927;28;20121;-32
2023/09/25 01:02:05;;;;;;;11.20;6.53;;;;;;;21.76;47.88;102194.47;4981830;28;20141;-32
2023/09/25 01:04:31;;;;;;;11.40;6.65;;;;;;;21.75;47.89;102200.00;4986761;28;20054;-32
2023/09/25 01:06:59;;;;;;;10.55;6.85;;;;;;;21.74;47.57;102195.59;4988937;28;20122;-32
2023/09/25 01:09:26;;;;;;;8.43;5.65;;;;;;;21.74;47.75;102195.59;4989881;28;20111;-32
2023/09/25 01:11:52;;;;;;;9.68;6.38;;;;;;;21.74;47.92;102192.91;4986300;28;20094;-32
2023/09/25 01:14:19;;;;;;;9.95;6.43;;;;;;;21.72;47.76;102194.91;4986447;28;20401;-32
2023/09/25 01:16:46;;;;;;;8.82;6.15;;;;;;;21.71;48.25;102193.19;4986628;28;20050;-32
2023/09/25 01:19:13;;;;;;;10.13;6.32;;;;;;;21.72;47.57;102192.22;4990489;28;20051;-32
2023/09/25 01:21:46;;;;;;;9.52;5.93;;;;;;;21.70;47.82;102195.03;4980744;28;20084;-32
2023/09/25 01:24:13;;;;;;;8.10;5.43;;;;;;;21.70;47.95;102186.94;4989813;28;20466;-32
2023/09/25 01:26:40;;;;;;;8.60;5.63;;;;;;;21.69;47.78;102186.09;4986015;28;20050;-32
2023/09/25 01:29:06;;;;;;;8.63;5.72;;;;;;;21.67;47.75;102180.00;4985856;28;20460;-32
2023/09/25 01:31:33;;;;;;;8.25;5.57;;;;;;;21.66;48.00;102172.88;4988163;28;20370;-32
2023/09/25 01:34:00;;;;;;;9.25;5.32;;;;;;;21.65;47.75;102176.59;4982292;28;20050;-32
2023/09/25 01:36:26;;;;;;;9.00;5.57;;;;;;;21.64;47.71;102177.59;4987906;28;20454;-32
2023/09/25 01:38:53;;;;;;;8.32;5.55;;;;;;;21.64;48.04;102180.28;4982906;28;20054;-33
2023/09/25 01:41:20;;;;;;;9.30;5.78;;;;;;;21.63;47.95;102177.75;4981238;28;20050;-32
2023/09/25 01:43:46;;;;;;;7.22;4.70;;;;;;;21.62;47.84;102176.03;4982410;28;20046;-32
2023/09/25 01:46:13;;;;;;;6.72;4.68;;;;;;;21.60;48.04;102172.63;4986291;28;20090;-32
2023/09/25 01:48:39;;;;;;;7.10;4.65;;;;;;;21.60;47.89;102180.72;4989128;28;20165;-32
2023/09/25 01:51:10;;;;;;;7.25;4.20;;;;;;;21.59;47.93;102179.88;4985597;28;20050;-32
2023/09/25 01:53:37;;;;;;;7.05;4.50;;;;;;;21.58;47.93;102180.84;4987972;28;20340;-32
2023/09/25 01:56:13;;;;;;;6.70;4.20;;;;;;;21.57;47.84;102187.25;4988544;28;20053;-32
2023/09/25 01:58:42;;;;;;;6.55;4.60;;;;;;;21.57;47.98;102173.75;4989015;28;20383;-32
2023/09/25 02:01:09;;;;;;;6.85;4.50;;;;;;;21.56;47.95;102172.06;4982391;28;20324;-32
2023/09/25 02:03:35;;;;;;;8.02;4.60;;;;;;;;;;4987339;28;20047;-32
2023/09/25 02:06:03;;;;;;;7.63;4.70;;;;;;;21.53;47.95;102166.97;4985579;28;20146;-32
2023/09/25 02:08:31;;;;;;;6.35;3.80;;;;;;;21.52;47.70;102176.06;4985235;28;20043;-32
2023/09/25 02:10:57;;;;;;;6.38;4.20;;;;;;;21.52;48.26;102167.13;4978544;28;20061;-32
2023/09/25 02:13:24;;;;;;;6.53;4.43;;;;;;;21.51;48.11;102162.69;4986454;28;20050;-32
2023/09/25 02:15:51;;;;;;;7.03;4.10;;;;;;;21.50;47.95;102161.84;4979549;28;20076;-32
2023/09/25 02:18:18;;;;;;;7.40;4.28;;;;;;;21.49;47.93;102154.75;4982277;28;20136;-32
2023/09/25 02:20:46;;;;;;;5.70;3.85;;;;;;;21.48;47.95;102161.16;4987071;28;20049;-32
2023/09/25 02:23:12;;;;;;;5.05;3.53;;;;;;;21.48;47.82;102154.91;4979740;28;20132;-32
2023/09/25 02:25:39;;;;;;;5.65;4.03;;;;;;;21.47;47.98;102150.50;4989102;28;20055;-32
2023/09/25 02:28:06;;;;;;;5.80;3.67;;;;;;;21.46;48.19;102149.63;4984424;28;20058;-32
2023/09/25 02:30:32;;;;;;;7.43;3.95;;;;;;;21.44;47.87;102147.09;4989435;28;20098;-32
2023/09/25 02:32:59;;;;;;;6.25;3.35;;;;;;;21.45;47.91;102145.25;4986754;28;20795;-32
2023/09/25 02:35:26;;;;;;;5.68;3.22;;;;;;;21.44;48.03;102149.78;4986071;28;20136;-32
2023/09/25 02:37:53;;;;;;;6.30;3.47;;;;;;;21.43;48.28;102133.78;4989493;28;20105;-32
2023/09/25 02:40:19;;;;;;;4.60;3.10;;;;;;;21.43;48.16;102137.31;4990900;28;20053;-32
2023/09/25 02:42:46;;;;;;;6.07;3.33;;;;;;;21.42;48.07;102134.75;4987119;28;20059;-32
2023/09/25 02:45:14;;;;;;;4.80;3.08;;;;;;;21.42;48.00;102129.34;4985526;28;20346;-32
2023/09/25 02:47:41;;;;;;;5.10;3.03;;;;;;;21.41;47.91;102122.25;4980874;28;20051;-32
2023/09/25 02:50:09;;;;;;;5.40;3.10;;;;;;;21.40;48.26;102121.41;4984567;28;20038;-32
2023/09/25 02:52:36;;;;;;;6.30;4.03;;;;;;;21.39;47.63;102125.13;4991836;28;20113;-32
2023/09/25 02:55:03;;;;;;;5.03;3.20;;;;;;;21.38;47.98;102128.78;4991593;28;20105;-32
2023/09/25 02:57:30;;;;;;;4.97;2.65;;;;;;;21.39;47.76;102116.19;4989222;28;20054;-32
2023/09/25 02:59:56;;;;;;;3.95;2.70;;;;;;;21.38;47.97;102122.53;4988087;28;20039;-32
2023/09/25 03:02:25;;;;;;;4.05;2.60;;;;;;;21.37;47.74;102123.53;4989079;28;20419;-32
2023/09/25 03:04:53;;;;;;;4.13;2.75;;;;;;;21.37;47.96;102128.94;4988847;28;20077;-32
2023/09/25 03:07:20;;;;;;;3.92;2.65;;;;;;;21.36;47.96;102132.63;4987161;28;20046;-32
2023/09/25 03:09:47;;;;;;;3.60;2.55;;;;;;;21.35;48.10;102130.94;4995373;28;20046;-32
2023/09/25 03:12:13;;;;;;;4.10;2.65;;;;;;;21.34;47.94;102129.22;4988948;28;20112;-32
2023/09/25 03:14:40;;;;;;;3.88;3.00;;;;;;;21.33;47.65;102130.22;4990439;28;20129;-32
2023/09/25 03:17:07;;;;;;;3.88;2.75;;;;;;;21.33;48.12;102133.75;4992103;28;20326;-32
2023/09/25 03:19:35;;;;;;;5.88;2.80;;;;;;;21.34;47.77;102140.00;4988286;28;20484;-32
2023/09/25 03:22:02;;;;;;;3.65;2.70;;;;;;;21.32;47.96;102147.38;4993121;28;20046;-32
2023/09/25 03:24:30;;;;;;;4.13;2.60;;;;;;;21.32;47.93;102144.69;4991616;28;20050;-32
2023/09/25 03:26:57;;;;;;;5.47;3.05;;;;;;;21.31;48.01;102142.97;4985662;28;20457;-32
2023/09/25 03:29:23;;;;;;;5.00;2.30;;;;;;;21.30;47.95;102135.88;4983993;28;20054;-32
2023/09/25 03:31:50;;;;;;;3.33;1.95;;;;;;;21.30;48.08;102143.94;4989443;28;20083;-32
2023/09/25 03:34:16;;;;;;;3.45;2.38;;;;;;;21.29;47.82;102142.25;4982425;28;20513;-32
2023/09/25 03:36:43;;;;;;;4.95;2.30;;;;;;;21.29;47.83;102147.66;4982003;28;20427;-32
2023/09/25 03:39:10;;;;;;;3.78;2.10;;;;;;;21.28;47.84;102138.72;4984822;28;20051;-32
2023/09/25 03:41:37;;;;;;;2.65;2.10;;;;;;;21.28;47.89;102140.56;4984055;28;20479;-32
2023/09/25 03:44:04;;;;;;;5.88;2.65;;;;;;;21.27;48.00;102137.03;4978735;28;20061;-32
2023/09/25 03:46:31;;;;;;;4.25;2.38;;;;;;;21.27;47.98;102133.47;4985086;28;20399;-32
2023/09/25 03:49:01;;;;;;;3.65;2.20;;;;;;;21.26;47.93;102137.16;4984191;28;20096;-32
2023/09/25 03:51:28;;;;;;;3.15;1.95;;;;;;;21.26;47.98;102140.69;4993068;28;20335;-32
2023/09/25 03:53:55;;;;;;;4.55;2.30;;;;;;;21.25;47.71;102140.84;4986924;28;20078;-32
2023/09/25 03:56:21;;;;;;;3.55;2.15;;;;;;;21.23;47.67;102138.31;4986542;28;20486;-32
2023/09/25 03:58:48;;;;;;;5.45;2.08;;;;;;;21.23;47.74;102134.72;4986544;28;20054;-32
2023/09/25 04:01:15;;;;;;;3.38;1.90;;;;;;;21.23;47.55;102126.63;4988686;28;20369;-32
2023/09/25 04:03:41;;;;;;;3.83;2.15;;;;;;;21.20;47.52;102133.19;4986228;28;20052;-32
2023/09/25 04:06:09;;;;;;;4.05;2.95;;;;;;;21.19;47.82;102145.81;4992116;28;20060;-32
2023/09/25 04:08:35;;;;;;;5.55;2.03;;;;;;;21.18;47.74;102135.16;4992279;28;20434;-32
2023/09/25 04:11:03;;;;;;;4.32;2.42;;;;;;;21.18;47.87;102138.72;4989962;28;22302;-32
2023/09/25 04:13:31;;;;;;;3.10;2.05;;;;;;;21.18;47.98;102151.34;4989229;28;20107;-32
2023/09/25 04:15:58;;;;;;;3.08;1.83;;;;;;;21.17;47.48;102145.09;4982957;28;20055;-32
2023/09/25 04:18:24;;;;;;;1.90;1.58;;;;;;;21.15;47.69;102141.72;4983541;28;20901;-32
2023/09/25 04:20:51;;;;;;;3.65;1.90;;;;;;;21.15;47.84;102155.19;4989878;28;20058;-32
2023/09/25 04:23:19;;;;;;;2.85;2.00;;;;;;;21.15;47.46;102152.50;4991795;28;20051;-32
2023/09/25 04:25:52;;;;;;;2.78;1.80;;;;;;;21.14;47.81;102155.31;4993534;28;20057;-32
2023/09/25 04:28:20;;;;;;;4.50;2.63;;;;;;;21.13;47.55;102149.06;4990373;28;20050;-32
2023/09/25 04:30:46;;;;;;;3.58;2.10;;;;;;;21.13;47.78;102156.31;4983549;28;20143;-32
2023/09/25 04:33:14;;;;;;;4.20;2.05;;;;;;;21.12;47.42;102160.00;4982993;28;20069;-32
2023/09/25 04:35:41;;;;;;;2.63;1.90;;;;;;;21.12;47.93;102166.25;4987804;28;20177;-32
2023/09/25 04:38:08;;;;;;;3.50;2.05;;;;;;;21.10;48.04;102168.22;4986556;28;21174;-32
2023/09/25 04:40:34;;;;;;;3.25;2.03;;;;;;;21.10;47.80;102167.38;4990123;28;20164;-32
2023/09/25 04:43:01;;;;;;;4.53;2.25;;;;;;;21.09;47.62;102168.38;4995944;28;20167;-32
2023/09/25 04:45:29;;;;;;;7.22;2.20;;;;;;;21.09;47.43;102171.06;4992279;28;20057;-32
2023/09/25 04:47:57;;;;;;;5.00;2.10;;;;;;;21.09;47.94;102174.63;4991443;28;20100;-32
2023/09/25 04:50:24;;;;;;;3.28;2.00;;;;;;;21.08;47.96;102172.06;4987169;28;20049;-32
2023/09/25 04:52:50;;;;;;;5.25;2.03;;;;;;;21.07;48.02;102179.31;4985135;28;20400;-32
2023/09/25 04:55:17;;;;;;;5.15;2.30;;;;;;;21.07;47.80;102182.00;4983902;28;20047;-32
2023/09/25 04:57:45;;;;;;;5.03;2.03;;;;;;;21.07;48.00;102183.84;4979527;28;20047;-32
2023/09/25 05:00:17;;;;;;;4.72;2.10;;;;;;;21.06;47.78;102174.91;4984956;28;20114;-32
2023/09/25 05:02:45;;;;;;;3.42;1.88;;;;;;;21.05;47.55;102175.91;4975700;28;20081;-32
2023/09/25 05:05:13;;;;;;;4.97;2.22;;;;;;;21.05;47.49;102175.91;4980254;28;20046;-32
2023/09/25 05:07:41;;;;;;;6.25;2.40;;;;;;;21.05;47.44;102188.53;4977589;28;20051;-32
2023/09/25 05:10:12;;;;;;;10.95;2.63;;;;;;;21.04;47.56;102189.53;4980437;28;20057;-32
2023/09/25 05:12:39;;;;;;;3.63;2.10;;;;;;;21.03;48.04;102180.59;4980050;28;21469;-32
2023/09/25 05:15:07;;;;;;;3.17;1.65;;;;;;;21.03;47.72;102177.91;4983125;28;20602;-32
2023/09/25 05:17:41;;;;;;;5.15;2.17;;;;;;;21.01;47.82;102182.56;4979278;28;20446;-32
2023/09/25 05:20:15;;;;;;;3.05;2.05;;;;;;;21.02;47.76;102178.88;4980815;28;20046;-32
2023/09/25 05:22:44;;;;;;;4.55;2.22;;;;;;;21.02;47.65;102178.88;4983420;28;20046;-32
2023/09/25 05:25:12;;;;;;;3.13;2.05;;;;;;;21.01;48.09;102184.41;4980027;28;20061;-32
2023/09/25 05:27:41;;;;;;;3.03;2.00;;;;;;;21.00;47.73;102188.09;4979292;28;20050;-32
2023/09/25 05:30:09;;;;;;;3.28;1.92;;;;;;;21.01;47.92;102181.72;4980797;28;20068;-32
2023/09/25 05:32:37;;;;;;;3.47;2.00;;;;;;;20.99;47.95;102187.25;4981164;28;20065;-32
2023/09/25 05:35:05;;;;;;;4.90;2.20;;;;;;;20.99;47.73;102186.41;4984257;28;20153;-32
2023/09/25 05:37:32;;;;;;;2.97;1.75;;;;;;;20.99;48.16;102191.81;4982235;28;20047;-31
2023/09/25 05:40:05;;;;;;;3.65;2.15;;;;;;;20.98;47.63;102184.69;4981148;28;20047;-32
2023/09/25 05:42:32;;;;;;;3.42;2.15;;;;;;;20.98;47.86;102192.78;4979678;28;20101;-32
2023/09/25 05:44:58;;;;;;;3.55;1.90;;;;;;;20.98;48.02;102193.63;5016073;28;20105;-32
2023/09/25 05:47:25;;;;;;;4.65;2.10;;;;;;;20.96;47.96;102187.53;4980999;28;20430;-32
2023/09/25 05:49:52;;;;;;;4.38;2.15;;;;;;;20.97;47.90;102200.00;4980391;28;20050;-32
2023/09/25 05:52:18;;;;;;;3.53;1.88;;;;;;;20.97;47.71;102196.47;4979508;28;20050;-32
2023/09/25 05:54:45;;;;;;;3.72;1.67;;;;;;;20.95;47.71;102199.31;4979262;28;20405;-32
2023/09/25 05:57:12;;;;;;;2.90;1.77;;;;;;;20.95;48.16;102205.56;4986534;28;20054;-32
2023/09/25 05:59:39;;;;;;;3.40;2.13;;;;;;;20.95;47.64;102204.69;4981200;28;20046;-32
2023/09/25 06:02:07;;;;;;;3.40;1.80;;;;;;;20.95;48.08;102202.00;4977454;28;20085;-32
2023/09/25 06:04:38;;;;;;;3.10;1.70;;;;;;;20.94;47.86;102202.97;4975878;28;20137;-32
2023/09/25 06:07:05;;;;;;;2.58;1.67;;;;;;;20.95;47.80;102205.56;4979533;28;20143;-32
2023/09/25 06:09:33;;;;;;;3.15;2.05;;;;;;;20.95;47.62;102213.63;4979791;28;20387;-32
2023/09/25 06:12:00;;;;;;;3.38;1.80;;;;;;;20.95;47.54;102213.63;4978553;28;20374;-32
2023/09/25 06:14:30;;;;;;;4.32;1.50;;;;;;;20.96;47.95;102206.41;4981584;28;20058;-32
2023/09/25 06:17:00;;;;;;;3.45;1.85;;;;;;;20.95;47.77;102210.94;4976219;28;20133;-32
2023/09/25 06:19:26;;;;;;;3.60;1.48;;;;;;;20.94;48.02;102206.56;4979825;28;20046;-32
2023/09/25 06:21:54;;;;;;;2.40;1.60;;;;;;;20.96;47.90;102201.00;4974994;28;20054;-33
2023/09/25 06:24:21;;;;;;;2.78;1.55;;;;;;;20.95;47.87;102196.63;4973248;28;20512;-32
2023/09/25 06:26:49;;;;;;;3.03;1.50;;;;;;;20.96;47.82;102201.00;4978618;28;20053;-32
2023/09/25 06:29:16;;;;;;;2.88;1.80;;;;;;;20.95;47.93;102207.41;4979674;28;20133;-33
2023/09/25 06:31:43;;;;;;;2.83;1.52;;;;;;;20.95;48.13;102202.84;4978583;28;20227;-32
2023/09/25 06:34:25;;;;;;;3.42;1.90;;;;;;;20.96;47.95;102201.00;4981333;28;20137;-32
2023/09/25 06:36:52;;;;;;;3.30;1.63;;;;;;;20.95;48.17;102210.94;4977693;28;20058;-32
2023/09/25 06:39:19;;;;;;;4.32;1.83;;;;;;;20.97;47.92;102205.41;4976006;28;20607;-32
2023/09/25 06:41:46;;;;;;;2.70;1.58;;;;;;;20.95;47.74;102210.94;4974873;28;20043;-33
2023/09/25 06:44:13;;;;;;;2.72;1.58;;;;;;;20.98;47.77;102206.25;4975706;28;20049;-32
2023/09/25 06:46:40;;;;;;;2.40;1.63;;;;;;;20.98;47.88;102208.94;5006337;28;22376;-32
2023/09/25 06:49:07;;;;;;;3.00;1.75;;;;;;;20.97;47.60;102212.63;4974547;28;20051;-33
2023/09/25 06:51:33;;;;;;;2.75;1.77;;;;;;;20.97;47.66;102216.19;4977565;28;20071;-32
2023/09/25 06:54:00;;;;;;;3.28;1.90;;;;;;;20.98;47.60;102215.19;4979348;28;20073;-32
2023/09/25 06:56:27;;;;;;;3.15;1.80;;;;;;;20.99;47.77;102211.50;4979377;28;20124;-32
2023/09/25 06:58:53;;;;;;;2.70;1.67;;;;;;;20.99;47.44;102216.91;4981834;28;20054;-32
2023/09/25 07:01:21;;;;;;;1.90;1.20;;;;;;;20.99;47.62;102208.81;5008928;28;20140;-32
2023/09/25 07:03:48;;;;;;;3.83;1.80;;;;;;;21.00;47.38;102218.59;4974744;28;21829;-32
2023/09/25 07:06:14;;;;;;;3.25;1.20;;;;;;;21.01;47.97;102219.44;4975029;28;20062;-32
2023/09/25 07:08:41;;;;;;;2.97;1.48;;;;;;;21.01;47.77;102222.16;4978294;28;20081;-32
2023/09/25 07:11:08;;;;;;;3.33;1.70;;;;;;;21.02;47.33;102221.16;4972595;28;20069;-33
2023/09/25 07:13:35;;;;;;;2.72;1.58;;;;;;;21.03;47.60;102220.19;4975688;28;20046;-32
2023/09/25 07:16:06;;;;;;;4.03;2.22;;;;;;;21.02;47.46;102208.50;4973234;28;20077;-32
2023/09/25 07:18:33;;;;;;;3.08;1.75;;;;;;;21.03;47.56;102212.94;4977336;28;20648;-33
2023/09/25 07:21:00;;;;;;;3.10;1.50;;;;;;;21.03;47.17;102204.00;4977066;28;20061;-33
2023/09/25 07:23:27;;;;;;;4.45;2.25;;;;;;;21.04;47.72;102213.78;4978521;28;20805;-33
2023/09/25 07:26:04;;;;;;;2.42;1.65;;;;;;;21.05;47.63;102226.28;4980367;28;20053;-33
2023/09/25 07:28:31;;;;;;;2.40;1.40;;;;;;;21.06;47.41;102218.03;4973526;28;20050;-32
2023/09/25 07:31:00;;;;;;;2.88;1.60;;;;;;;21.07;47.21;102219.75;4978851;28;20458;-33
2023/09/25 07:33:31;;;;;;;3.70;1.83;;;;;;;21.07;47.39;102213.50;4983679;28;20358;-33
2023/09/25 07:35:59;;;;;;;1.95;1.40;;;;;;;21.08;47.46;102215.22;4983627;28;20065;-32
2023/09/25 07:38:30;;;;;;;3.22;1.65;;;;;;;21.09;47.51;102223.16;4980367;28;20644;-32
2023/09/25 07:40:57;;;;;;;2.60;1.50;;;;;;;21.10;47.58;102216.75;4982166;28;20055;-32
2023/09/25 07:43:29;;;;;;;4.43;1.30;;;;;;;21.11;47.60;102223.88;4981260;28;20051;-32
2023/09/25 07:46:00;;;;;;;3.90;1.77;;;;;;;21.12;47.37;102217.47;4980802;28;20117;-32
2023/09/25 07:48:27;;;;;;;2.05;1.25;;;;;;;21.13;47.51;102213.78;4978281;28;20093;-32
2023/09/25 07:50:58;;;;;;;5.85;1.30;;;;;;;21.13;47.33;102203.00;4982364;28;20049;-33
2023/09/25 07:53:25;;;;;;;3.08;1.65;;;;;;;21.13;47.06;102203.00;4981203;28;20050;-32
2023/09/25 07:55:51;;;;;;;2.50;1.40;;;;;;;21.14;47.39;102207.38;4983078;28;20058;-32
2023/09/25 07:58:18;;;;;;;3.58;1.40;;;;;;;21.15;47.53;102205.56;4983978;28;20061;-33
2023/09/25 08:00:47;;;;;;;3.83;1.52;;;;;;;21.16;47.46;102200.03;4983388;28;20083;-32
2023/09/25 08:03:21;;;;;;;2.72;1.33;;;;;;;21.17;47.30;102198.19;4979021;28;20053;-33
2023/09/25 08:05:48;;;;;;;3.75;1.90;;;;;;;21.18;47.46;102199.88;4982599;28;20531;-32
2023/09/25 08:08:15;;;;;;;2.40;1.58;;;;;;;21.17;47.03;102196.34;4989800;28;20073;-33
2023/09/25 08:10:44;;;;;;;6.20;1.60;;;;;;;21.19;47.43;102213.22;4986629;28;20431;-33
2023/09/25 08:13:11;;;;;;;3.25;2.10;;;;;;;21.20;47.43;102206.00;4983732;28;20050;-33
2023/09/25 08:15:41;;;;;;;3.13;1.88;;;;;;;21.20;47.26;102203.28;4983457;28;20046;-36
2023/09/25 08:18:08;;;;;;;4.40;1.60;;;;;;;21.23;47.04;102208.41;4980391;28;20412;-36
2023/09/25 08:20:35;;;;;;;2.38;1.27;;;;;;;21.24;47.47;102198.47;4980002;28;20051;-36
2023/09/25 08:23:02;;;;;;;2.35;1.40;;;;;;;21.25;47.11;102194.78;4983592;28;20477;-35
2023/09/25 08:25:30;;;;;;;1.95;1.33;;;;;;;21.25;47.70;102190.22;4985367;28;20066;-36
2023/09/25 08:27:57;;;;;;;2.22;1.77;;;;;;;21.27;47.19;102200.91;4984572;28;20101;-37
2023/09/25 08:30:23;;;;;;;2.25;1.40;;;;;;;21.29;47.10;102196.19;4977937;28;20058;-39
2023/09/25 08:32:50;;;;;;;2.45;1.58;;;;;;;21.30;47.10;102204.13;4982284;28;20051;-36
2023/09/25 08:35:18;;;;;;;2.25;1.35;;;;;;;21.31;47.06;102199.63;4979362;28;20042;-36
2023/09/25 08:37:45;;;;;;;2.92;1.80;;;;;;;21.32;47.17;102204.00;4984314;28;20065;-36
2023/09/25 08:40:13;;;;;;;4.32;1.35;;;;;;;21.33;46.93;102201.19;4985496;28;20050;-36
2023/09/25 08:42:39;;;;;;;2.45;1.40;;;;;;;21.35;47.01;102201.91;4988434;28;20046;-37
2023/09/25 08:45:07;;;;;;;2.72;1.63;;;;;;;21.37;47.33;102209.84;4983654;28;20062;-38
2023/09/25 08:47:35;;;;;;;2.22;1.58;;;;;;;21.39;47.12;102210.56;4982432;28;20046;-37
2023/09/25 08:50:02;;;;;;;2.60;1.40;;;;;;;21.41;46.98;102211.28;4985904;28;20109;-40
2023/09/25 08:52:31;;;;;;;1.88;1.60;;;;;;;21.42;47.30;102208.41;4977823;28;20054;-37
2023/09/25 08:54:59;;;;;;;3.13;1.63;;;;;;;21.43;46.94;102210.16;4981057;28;20286;-36
2023/09/25 08:57:26;;;;;;;6.07;1.92;;;;;;;21.46;47.34;102213.53;4982199;28;20507;-37
2023/09/25 08:59:53;;;;;;;4.18;1.85;;;;;;;21.48;47.27;102223.19;4984006;28;20397;-36
2023/09/25 09:02:20;;;;;;;5.43;2.28;;;;;;;21.50;47.04;102228.44;4985121;28;20059;-37
2023/09/25 09:04:47;;;;;;;6.10;1.80;;;;;;;21.51;47.28;102228.31;4983500;28;20043;-39
2023/09/25 09:07:14;;;;;;;4.32;2.08;;;;;;;21.53;47.50;102233.56;4982988;28;20053;-40
2023/09/25 09:09:43;;;;;;;4.78;2.05;;;;;;;21.56;47.38;102242.22;4979543;28;20046;-40
2023/09/25 09:12:10;;;;;;;6.80;2.22;;;;;;;21.57;47.58;102238.53;4982249;28;20169;-38
2023/09/25 09:14:43;;;;;;;5.63;2.10;;;;;;;21.60;47.53;102242.78;4983193;28;20054;-37
2023/09/25 09:17:11;;;;;;;6.93;2.00;;;;;;;21.61;47.70;102253.44;4977077;28;20439;-37
2023/09/25 09:19:44;;;;;;;9.05;2.33;;;;;;;21.63;47.74;102251.44;4985461;28;20042;-36
2023/09/25 09:22:11;;;;;;;8.02;2.70;;;;;;;21.67;47.45;102260.97;4985434;28;20055;-38
2023/09/25 09:24:39;;;;;;;4.55;2.17;;;;;;;21.69;47.71;102247.31;4980281;28;20140;-36
2023/09/25 09:27:10;;;;;;;6.35;2.30;;;;;;;21.73;47.39;102242.50;4979991;28;20058;-36
2023/09/25 09:29:42;;;;;;;4.47;2.30;;;;;;;21.77;47.42;102241.19;4985184;28;20077;-36
2023/09/25 09:32:09;;;;;;;7.50;2.83;;;;;;;21.80;47.32;102232.81;4980457;28;20161;-36
2023/09/25 09:34:40;;;;;;;4.72;2.05;;;;;;;21.82;47.38;102234.38;4984041;28;20042;-36
2023/09/25 09:37:12;;;;;;;3.72;1.90;;;;;;;21.86;47.13;102237.63;4983822;28;20058;-37
2023/09/25 09:39:45;;;;;;;3.85;2.08;;;;;;;21.92;47.22;102237.06;4985439;28;20054;-38
2023/09/25 09:42:14;;;;;;;6.30;2.30;;;;;;;21.94;47.33;102248.56;4983549;28;20082;-38
2023/09/25 09:44:43;;;;;;;5.10;2.22;;;;;;;21.98;47.13;102246.41;4982519;28;20225;-36
2023/09/25 09:47:10;;;;;;;4.63;1.83;;;;;;;22.00;47.26;102247.13;4980765;28;20054;-38
2023/09/25 09:49:41;;;;;;;4.95;1.90;;;;;;;22.03;47.37;102242.31;4981452;28;20046;-36
2023/09/25 09:52:10;;;;;;;4.28;2.33;;;;;;;22.06;47.45;102241.13;4983203;28;20090;-35
2023/09/25 09:54:42;;;;;;;3.85;2.08;;;;;;;22.09;47.39;102240.84;4983372;28;20114;-36
2023/09/25 09:57:10;;;;;;;8.18;2.30;;;;;;;22.11;47.12;102239.72;5013085;28;20569;-36
2023/09/25 09:59:37;;;;;;;5.72;1.98;;;;;;;22.14;47.59;102243.97;4981084;28;20069;-40
2023/09/25 10:02:04;;;;;;;4.43;1.83;;;;;;;22.16;47.36;102240.16;4984920;28;20544;-39
2023/09/25 10:04:32;;;;;;;3.63;2.00;;;;;;;22.19;47.28;102239.00;4984643;28;20054;-37
2023/09/25 10:07:04;;;;;;;3.75;1.60;;;;;;;22.22;47.48;102241.41;4986716;28;20046;-37
2023/09/25 10:09:32;;;;;;;5.72;2.05;;;;;;;22.27;47.33;102231.03;4987931;28;20097;-38
2023/09/25 10:11:58;;;;;;;4.03;1.85;;;;;;;22.29;47.43;102223.59;4983673;28;20157;-37
2023/09/25 10:14:26;;;;;;;4.25;1.75;;;;;;;22.32;47.16;102227.88;4983683;28;20088;-37
2023/09/25 10:17:00;;;;;;;3.65;1.65;;;;;;;22.34;47.07;102228.56;4983827;28;20340;-37
2023/09/25 10:19:53;;;;;;;5.85;2.00;;;;;;;22.36;47.42;102229.28;4985604;28;20075;-37
2023/09/25 10:22:30;;;;;;;4.57;1.70;;;;;;;22.41;47.20;102230.53;4987999;28;20053;-38
2023/09/25 10:25:05;;;;;;;4.85;1.88;;;;;;;22.44;47.10;102234.78;4982520;28;20069;-40
2023/09/25 10:27:32;;;;;;;5.18;2.28;;;;;;;22.47;47.05;102245.28;4983599;28;20331;-39
2023/09/25 10:30:11;;;;;;;6.78;2.13;;;;;;;22.49;46.94;102246.00;4984947;28;20422;-40
2023/09/25 10:32:40;;;;;;;2.90;1.58;;;;;;;22.53;46.88;102249.25;4982338;28;20051;-41
2023/09/25 10:35:35;;;;;;;4.10;1.90;;;;;;;22.54;46.93;102251.78;4984541;28;20050;-41
2023/09/25 10:38:16;;;;;;;3.17;1.80;;;;;;;22.58;46.78;102249.66;4990895;28;20046;-38
2023/09/25 10:41:07;;;;;;;3.40;1.52;;;;;;;22.62;46.77;102242.94;4984245;28;20086;-40
2023/09/25 10:43:35;;;;;;;3.72;1.70;;;;;;;22.63;46.75;102250.91;4990424;28;20047;-40
2023/09/25 10:46:03;;;;;;;3.25;1.60;;;;;;;22.65;46.73;102243.50;4985854;28;20051;-38
2023/09/25 10:48:31;;;;;;;5.85;2.08;;;;;;;22.67;47.09;102243.34;4981257;28;20054;-40
2023/09/25 10:50:58;;;;;;;5.43;2.28;;;;;;;22.69;46.78;102237.78;5011013;28;20039;-42
2023/09/25 10:53:26;;;;;;;2.85;1.63;;;;;;;22.70;46.70;102242.19;4981750;28;20439;-38
2023/09/25 10:55:54;;;;;;;5.72;1.95;;;;;;;22.72;47.03;102251.00;4990825;28;20057;-40
2023/09/25 10:58:21;;;;;;;2.97;1.75;;;;;;;22.73;47.44;102241.91;4982197;28;20095;-41
2023/09/25 11:00:49;;;;;;;4.05;1.45;;;;;;;22.73;47.03;102245.44;4984715;28;20061;-41
2023/09/25 11:03:17;;;;;;;3.63;1.85;;;;;;;22.75;47.11;102239.88;5012054;28;20086;-40
2023/09/25 11:05:44;;;;;;;3.35;1.55;;;;;;;22.75;46.89;102245.28;4981112;28;20058;-40
2023/09/25 11:08:15;;;;;;;4.40;1.73;;;;;;;22.76;47.27;102244.31;4982204;28;20137;-39
2023/09/25 11:10:43;;;;;;;4.05;1.50;;;;;;;22.75;47.01;102240.72;4983414;28;20327;-41
2023/09/25 11:13:11;;;;;;;3.90;1.52;;;;;;;22.76;46.95;102244.31;4984814;28;20054;-40
2023/09/25 11:15:39;;;;;;;3.33;1.70;;;;;;;22.76;46.82;102241.59;4986403;28;20047;-40
2023/09/25 11:18:11;;;;;;;2.80;1.45;;;;;;;22.76;47.10;102242.44;4979867;28;20058;-40
2023/09/25 11:20:41;;;;;;;4.80;1.83;;;;;;;22.79;46.88;102260.19;4981862;28;20149;-40
2023/09/25 11:23:09;;;;;;;4.30;1.70;;;;;;;22.79;47.24;102247.53;4985575;28;20050;-40
2023/09/25 11:25:42;;;;;;;3.30;1.83;;;;;;;22.80;46.85;102251.13;4985064;28;20050;-40
2023/09/25 11:28:13;;;;;;;2.70;1.63;;;;;;;22.80;47.13;102245.72;4986113;28;20693;-41